Time;durP1;ratioP1;P1;durP2;ratioP2;P2;SDS_P1;SDS_P2;PMS_P1;PMS_P2;Temp;Humidity;BMP_temperature;BMP_pressure;BME280_temperature;BME280_humidity;BME280_pressure;Samples;Min_cycle;Max_cycle;Signal;HPM_P1;HPM_P2
2022/01/03 00:00:40;;;;;;;10.48;2.50;;;14.30;53.90;;;;;;4964174;28;20441;-56
2022/01/03 00:03:10;;;;;;;11.35;1.50;;;14.30;53.90;;;;;;4964548;28;20045;-56
2022/01/03 00:05:37;;;;;;;12.88;2.08;;;14.30;53.80;;;;;;4965301;28;20035;-58
2022/01/03 00:08:05;;;;;;;11.90;2.65;;;14.20;53.80;;;;;;4960008;28;20105;-54
2022/01/03 00:10:33;;;;;;;11.90;2.10;;;14.30;53.70;;;;;;4958566;28;20047;-56
2022/01/03 00:13:00;;;;;;;12.60;2.10;;;14.20;53.60;;;;;;4961731;28;20027;-59
2022/01/03 00:15:27;;;;;;;18.58;3.03;;;14.20;53.80;;;;;;4944294;28;20035;-56
2022/01/03 00:17:54;;;;;;;12.52;2.03;;;14.20;53.70;;;;;;4959343;28;20047;-58
2022/01/03 00:20:22;;;;;;;13.98;1.90;;;14.20;53.80;;;;;;4960260;28;20038;-57
2022/01/03 00:23:00;;;;;;;15.85;2.97;;;14.20;53.90;;;;;;4964851;28;20027;-55
2022/01/03 00:25:27;;;;;;;17.85;2.05;;;14.20;53.70;;;;;;4963120;28;20030;-57
2022/01/03 00:27:58;;;;;;;11.82;2.20;;;14.20;53.90;;;;;;4959245;28;20030;-57
2022/01/03 00:30:25;;;;;;;11.98;2.10;;;14.20;53.90;;;;;;4962063;28;22119;-59
2022/01/03 00:32:52;;;;;;;14.65;2.15;;;14.20;53.90;;;;;;4961085;28;20019;-55
2022/01/03 00:35:20;;;;;;;12.00;1.85;;;14.20;53.80;;;;;;4962109;28;20046;-58
2022/01/03 00:37:47;;;;;;;10.77;1.75;;;14.20;53.80;;;;;;4962021;28;20342;-56
2022/01/03 00:40:16;;;;;;;12.60;1.85;;;14.10;53.80;;;;;;4963352;28;20489;-55
2022/01/03 00:42:43;;;;;;;10.55;2.00;;;14.10;53.90;;;;;;4964192;28;20038;-56
2022/01/03 00:45:10;;;;;;;9.48;2.08;;;14.10;54.00;;;;;;4963643;28;20035;-57
2022/01/03 00:47:36;;;;;;;13.93;2.22;;;14.10;54.10;;;;;;4960429;28;20483;-55
2022/01/03 00:50:17;;;;;;;16.75;2.25;;;14.10;53.90;;;;;;4964158;28;20034;-55
2022/01/03 00:52:45;;;;;;;9.02;1.85;;;14.10;54.00;;;;;;4963261;28;20479;-56
2022/01/03 00:55:12;;;;;;;15.30;1.70;;;14.10;54.10;;;;;;4962551;28;20483;-56
2022/01/03 00:57:42;;;;;;;7.85;1.58;;;14.10;54.00;;;;;;4960854;28;20026;-56
2022/01/03 01:00:09;;;;;;;15.98;2.22;;;14.10;54.10;;;;;;4963812;28;20034;-55
2022/01/03 01:02:38;;;;;;;18.80;2.58;;;14.10;54.20;;;;;;4962822;28;20031;-54
2022/01/03 01:05:06;;;;;;;12.88;1.73;;;14.10;54.20;;;;;;4962468;28;20035;-56
2022/01/03 01:07:32;;;;;;;14.55;1.88;;;14.10;54.20;;;;;;4958317;28;20038;-58
2022/01/03 01:10:01;;;;;;;13.65;2.58;;;14.10;54.30;;;;;;4963301;28;20376;-53
2022/01/03 01:12:30;;;;;;;9.57;1.98;;;14.10;54.30;;;;;;4961590;28;20467;-57
2022/01/03 01:14:57;;;;;;;18.83;2.15;;;14.00;54.30;;;;;;4963606;28;20026;-57
2022/01/03 01:17:26;;;;;;;10.88;1.77;;;14.00;54.30;;;;;;4958105;28;20051;-59
2022/01/03 01:19:54;;;;;;;13.38;2.47;;;14.00;54.30;;;;;;4960813;28;20042;-56
2022/01/03 01:22:21;;;;;;;10.18;1.98;;;14.00;54.10;;;;;;4960085;28;20427;-58
2022/01/03 01:24:59;;;;;;;10.43;2.22;;;14.00;54.20;;;;;;4961956;28;20034;-57
2022/01/03 01:30:13;;;;;;;13.05;2.40;;;14.00;54.30;;;;;;4962451;28;20042;-59
2022/01/03 01:32:42;;;;;;;9.70;1.88;;;14.00;54.30;;;;;;4959567;28;20030;-58
2022/01/03 01:35:10;;;;;;;10.52;1.85;;;13.90;54.40;;;;;;4962189;28;20030;-58
2022/01/03 01:37:38;;;;;;;10.88;2.17;;;13.90;54.50;;;;;;4960089;28;20054;-55
2022/01/03 01:40:05;;;;;;;7.88;1.70;;;13.90;54.60;;;;;;4961230;28;20400;-55
2022/01/03 01:42:31;;;;;;;13.65;2.58;;;13.90;54.60;;;;;;4944225;28;20027;-58
2022/01/03 01:45:01;;;;;;;11.10;1.58;;;13.90;54.60;;;;;;4962297;28;20027;-58
2022/01/03 01:47:28;;;;;;;10.05;1.70;;;13.90;54.60;;;;;;4955948;28;20038;-59
2022/01/03 01:49:56;;;;;;;12.15;2.00;;;13.90;54.60;;;;;;4962844;28;20027;-56
2022/01/03 01:52:24;;;;;;;14.45;2.30;;;13.90;54.50;;;;;;4960842;28;20023;-57
2022/01/03 01:55:04;;;;;;;11.48;2.20;;;13.90;54.60;;;;;;4963383;28;20426;-57
2022/01/03 01:57:49;;;;;;;13.50;1.65;;;13.80;54.50;;;;;;4958233;28;20042;-54
2022/01/03 02:00:19;;;;;;;10.02;1.90;;;13.80;54.50;;;;;;4963006;28;20030;-58
2022/01/03 02:02:52;;;;;;;23.05;3.38;;;13.90;54.50;;;;;;4961403;28;20042;-56
2022/01/03 02:05:33;;;;;;;11.10;1.40;;;13.80;54.30;;;;;;4963010;28;20034;-56
2022/01/03 02:08:12;;;;;;;10.40;2.28;;;13.80;54.30;;;;;;4958058;28;20023;-57
2022/01/03 02:10:44;;;;;;;6.15;1.40;;;13.80;54.30;;;;;;4960447;28;20026;-58
2022/01/03 02:13:15;;;;;;;10.48;2.50;;;13.80;54.30;;;;;;4961100;28;20038;-56
2022/01/03 02:15:46;;;;;;;9.82;1.80;;;13.80;54.30;;;;;;4944209;28;20046;-57
2022/01/03 02:18:12;;;;;;;12.88;1.80;;;13.80;54.40;;;;;;4957865;28;20046;-56
2022/01/03 02:20:38;;;;;;;10.02;1.67;;;13.80;54.40;;;;;;4959498;28;20395;-57
2022/01/03 02:23:05;;;;;;;12.15;1.70;;;13.80;54.20;;;;;;4961251;28;20588;-56
2022/01/03 02:25:32;;;;;;;8.50;1.60;;;13.70;54.10;;;;;;4960874;28;20510;-56
2022/01/03 02:27:59;;;;;;;10.20;1.52;;;13.70;54.20;;;;;;4958194;28;20042;-58
2022/01/03 02:30:28;;;;;;;9.50;1.50;;;13.70;54.20;;;;;;4960017;28;20019;-56
2022/01/03 02:32:55;;;;;;;13.32;1.85;;;13.70;54.30;;;;;;4958752;28;20034;-56
2022/01/03 02:35:22;;;;;;;9.70;1.50;;;13.70;54.40;;;;;;4962292;28;20026;-56
2022/01/03 02:37:49;;;;;;;9.57;1.70;;;13.70;54.40;;;;;;4954218;28;20019;-58
2022/01/03 02:40:16;;;;;;;10.77;1.45;;;13.70;54.50;;;;;;4959206;28;20471;-55
2022/01/03 02:42:42;;;;;;;10.35;1.50;;;13.70;54.40;;;;;;4961154;28;20472;-56
2022/01/03 02:45:23;;;;;;;9.63;1.52;;;13.70;54.50;;;;;;4961526;28;20039;-56
2022/01/03 02:47:53;;;;;;;12.65;1.35;;;13.70;54.60;;;;;;4958435;28;20027;-57
2022/01/03 02:50:21;;;;;;;10.52;1.30;;;13.60;54.60;;;;;;4959563;28;20031;-57
2022/01/03 02:52:48;;;;;;;5.70;1.45;;;13.70;54.60;;;;;;4960774;28;20031;-54
2022/01/03 02:55:15;;;;;;;8.95;1.40;;;13.70;54.60;;;;;;4957956;28;20041;-57
2022/01/03 02:57:43;;;;;;;10.88;1.63;;;13.70;54.70;;;;;;4959995;28;20490;-59
2022/01/03 03:00:13;;;;;;;11.25;2.17;;;13.70;54.70;;;;;;4964084;28;20291;-54
2022/01/03 03:02:39;;;;;;;11.18;2.05;;;13.70;54.60;;;;;;4963416;28;20050;-58
2022/01/03 03:05:08;;;;;;;11.20;1.52;;;13.70;54.70;;;;;;4948623;28;20422;-58
2022/01/03 03:07:35;;;;;;;6.07;1.27;;;13.60;55.10;;;;;;4963057;28;20031;-55
2022/01/03 03:10:07;;;;;;;8.60;2.53;;;13.60;54.60;;;;;;4944449;28;20030;-56
2022/01/03 03:12:34;;;;;;;6.32;1.23;;;13.70;54.60;;;;;;4964210;28;20030;-57
2022/01/03 03:15:00;;;;;;;9.85;1.38;;;13.70;54.70;;;;;;4961707;28;20030;-57
2022/01/03 03:17:26;;;;;;;10.27;1.95;;;13.60;54.60;;;;;;4960602;28;20271;-55
2022/01/03 03:19:56;;;;;;;10.02;1.85;;;13.70;54.60;;;;;;4964580;28;20505;-56
2022/01/03 03:22:25;;;;;;;6.07;1.20;;;13.60;54.50;;;;;;4964062;28;20403;-55
2022/01/03 03:24:58;;;;;;;13.82;2.42;;;13.60;54.50;;;;;;4964112;28;20068;-56
2022/01/03 03:27:24;;;;;;;12.93;2.13;;;13.60;54.40;;;;;;4962523;28;20043;-56
2022/01/03 03:29:51;;;;;;;11.02;1.75;;;13.50;54.40;;;;;;4964405;28;20031;-54
2022/01/03 07:06:50;;;;;;;11.50;1.30;;;12.80;54.20;;;;;;5392915;23;20043;-58
2022/01/03 07:09:17;;;;;;;10.95;1.50;;;12.80;54.80;;;;;;4974917;28;20034;-59
2022/01/03 07:11:43;;;;;;;10.00;1.77;;;12.80;54.40;;;;;;4974164;28;20034;-57
2022/01/03 07:19:38;;;;;;;9.10;1.70;;;12.80;54.90;;;;;;4979271;28;20065;-55
2022/01/03 07:22:08;;;;;;;17.42;2.28;;;12.80;55.30;;;;;;4977751;28;20284;-58
2022/01/03 07:24:36;;;;;;;19.52;2.30;;;12.80;55.70;;;;;;4979540;28;20287;-55
2022/01/03 07:27:04;;;;;;;10.80;2.17;;;12.80;56.00;;;;;;4979252;28;20030;-56
2022/01/03 07:29:31;;;;;;;16.23;2.15;;;12.80;56.10;;;;;;4960416;28;20039;-56
2022/01/03 07:31:57;;;;;;;9.32;1.55;;;12.90;56.20;;;;;;4962468;28;20034;-57
2022/01/03 07:34:24;;;;;;;11.55;1.88;;;12.80;56.30;;;;;;4979324;28;20053;-58
2022/01/03 07:36:50;;;;;;;10.15;1.63;;;12.80;56.30;;;;;;4978683;28;20419;-57
2022/01/03 07:39:16;;;;;;;10.45;1.83;;;12.80;56.30;;;;;;4976306;28;20022;-57
2022/01/03 07:41:44;;;;;;;14.82;2.60;;;12.80;56.30;;;;;;4978873;28;20030;-56
2022/01/03 07:44:11;;;;;;;8.52;1.80;;;12.80;56.40;;;;;;4981687;28;20026;-55
2022/01/03 07:46:37;;;;;;;11.02;1.70;;;12.70;56.40;;;;;;4980673;28;20030;-56
2022/01/03 07:49:04;;;;;;;10.60;2.10;;;12.70;56.40;;;;;;4963930;28;20037;-55
2022/01/03 07:51:30;;;;;;;10.32;1.70;;;12.70;56.40;;;;;;4981576;28;20922;-55
2022/01/03 07:53:57;;;;;;;10.23;2.33;;;12.60;56.50;;;;;;4983156;28;20022;-53
2022/01/03 07:56:23;;;;;;;14.35;2.08;;;12.60;56.60;;;;;;4971699;28;20038;-56
2022/01/03 07:58:49;;;;;;;12.05;2.25;;;12.60;56.70;;;;;;4980154;28;20023;-53
2022/01/03 08:01:16;;;;;;;9.38;1.75;;;12.60;56.80;;;;;;4981062;28;20494;-54
2022/01/03 08:03:42;;;;;;;11.80;1.60;;;12.60;56.90;;;;;;4980661;28;20027;-57
2022/01/03 08:06:10;;;;;;;11.50;1.67;;;12.60;57.00;;;;;;4980946;28;20733;-55
2022/01/03 08:08:37;;;;;;;9.55;2.08;;;12.60;57.10;;;;;;4979125;28;20030;-57
2022/01/03 08:11:04;;;;;;;9.15;1.83;;;12.60;57.20;;;;;;4970639;28;20061;-55
2022/01/03 08:13:30;;;;;;;12.02;1.73;;;12.60;57.30;;;;;;4981875;28;20670;-54
2022/01/03 08:15:56;;;;;;;15.68;2.47;;;12.60;57.40;;;;;;4981626;28;20038;-55
2022/01/03 08:18:22;;;;;;;12.00;2.15;;;12.60;57.40;;;;;;4978461;28;20038;-54
2022/01/03 08:20:51;;;;;;;17.60;2.13;;;12.60;57.50;;;;;;4982475;28;20034;-57
2022/01/03 08:23:18;;;;;;;11.50;2.08;;;12.60;57.60;;;;;;4982213;28;20399;-55
2022/01/03 08:25:44;;;;;;;10.90;1.95;;;12.60;57.60;;;;;;4982182;28;20410;-55
2022/01/03 08:28:10;;;;;;;15.90;2.30;;;12.70;57.80;;;;;;4980158;28;20458;-56
2022/01/03 08:30:37;;;;;;;11.65;2.08;;;12.70;57.80;;;;;;4980745;28;20035;-56
2022/01/03 08:33:04;;;;;;;14.07;2.10;;;12.70;57.90;;;;;;4969725;28;20398;-56
2022/01/03 08:35:31;;;;;;;15.10;1.85;;;12.70;58.00;;;;;;4981790;28;20026;-57
2022/01/03 08:37:58;;;;;;;9.20;1.73;;;12.70;58.00;;;;;;4978215;28;20046;-54
2022/01/03 08:40:27;;;;;;;21.50;2.70;;;12.70;58.20;;;;;;4969264;28;20049;-55
2022/01/03 08:42:53;;;;;;;11.93;2.33;;;12.70;58.30;;;;;;4982752;28;20455;-54
2022/01/03 08:45:19;;;;;;;8.35;1.70;;;12.80;58.40;;;;;;4977793;28;20045;-56
2022/01/03 08:47:47;;;;;;;12.55;1.90;;;12.80;58.50;;;;;;4975202;28;20042;-54
2022/01/03 08:50:15;;;;;;;13.63;1.92;;;12.80;58.50;;;;;;4982661;28;20460;-57
2022/01/03 08:52:42;;;;;;;13.05;1.95;;;12.90;58.50;;;;;;4980724;28;20029;-57
2022/01/03 08:55:08;;;;;;;13.05;1.92;;;12.90;58.30;;;;;;4980725;28;20126;-56
2022/01/03 08:57:34;;;;;;;15.48;2.17;;;12.90;58.20;;;;;;4981394;28;20038;-56
2022/01/03 09:00:00;;;;;;;14.82;2.08;;;12.90;58.00;;;;;;4982673;28;20026;-58
2022/01/03 09:02:27;;;;;;;17.23;2.13;;;13.00;58.00;;;;;;4978794;28;20046;-56
2022/01/03 09:04:53;;;;;;;17.00;2.03;;;13.00;57.90;;;;;;4981873;28;20030;-54
2022/01/03 09:07:19;;;;;;;11.38;1.88;;;13.00;57.80;;;;;;4981015;28;20373;-54
2022/01/03 09:09:45;;;;;;;12.07;2.20;;;13.00;57.70;;;;;;4979407;28;20037;-57
2022/01/03 09:12:11;;;;;;;13.70;1.95;;;13.00;57.70;;;;;;4980243;28;20372;-56
2022/01/03 09:14:38;;;;;;;17.13;2.55;;;13.00;57.60;;;;;;4978088;28;20454;-58
2022/01/03 09:17:04;;;;;;;12.10;2.03;;;13.10;57.50;;;;;;4976782;28;20026;-57
2022/01/03 09:19:30;;;;;;;11.48;2.25;;;13.10;57.50;;;;;;4980518;28;20041;-57
2022/01/03 09:22:19;;;;;;;14.73;2.10;;;13.10;57.50;;;;;;4981107;28;20984;-58
2022/01/03 09:28:49;;;;;;;10.63;2.10;;;13.20;57.40;;;;;;4979643;28;20019;-54
2022/01/03 09:30:20;;;;;;;8.43;1.95;;;13.20;57.10;;;;;;4981373;28;20110;-56
2022/01/03 09:32:46;;;;;;;11.70;1.80;;;13.20;57.10;;;;;;4978983;28;20050;-57
2022/01/03 09:35:12;;;;;;;10.15;2.40;;;13.30;57.00;;;;;;4980386;28;20513;-55
2022/01/03 09:37:40;;;;;;;13.73;2.33;;;13.20;57.00;;;;;;4978368;28;20103;-57
2022/01/03 09:40:07;;;;;;;19.40;2.97;;;13.30;57.00;;;;;;4979805;28;20626;-56
2022/01/03 09:42:34;;;;;;;14.38;2.38;;;13.30;56.80;;;;;;4979699;28;20037;-54
2022/01/03 09:45:06;;;;;;;16.15;2.38;;;13.30;56.80;;;;;;4977548;28;20060;-56
2022/01/03 09:47:33;;;;;;;11.68;2.38;;;13.30;56.70;;;;;;4976375;28;20045;-56
2022/01/03 09:50:00;;;;;;;13.68;2.28;;;13.30;56.70;;;;;;4980239;28;20037;-58
2022/01/03 09:52:27;;;;;;;13.07;2.10;;;13.30;56.70;;;;;;4979740;28;20042;-56
2022/01/03 09:54:57;;;;;;;15.20;2.20;;;13.30;56.70;;;;;;4981165;28;20030;-57
2022/01/03 09:57:25;;;;;;;12.40;2.15;;;13.30;56.60;;;;;;4977681;28;20047;-57
2022/01/03 09:59:51;;;;;;;11.00;2.50;;;13.30;56.70;;;;;;4979055;28;20029;-55
2022/01/03 10:02:18;;;;;;;14.32;2.50;;;13.40;56.70;;;;;;4978774;28;20057;-56
2022/01/03 10:04:44;;;;;;;13.43;2.70;;;13.40;56.70;;;;;;4978774;28;20038;-56
2022/01/03 10:07:14;;;;;;;8.82;1.83;;;13.40;56.70;;;;;;4967282;28;20456;-56
2022/01/03 10:09:42;;;;;;;9.35;2.20;;;13.40;56.70;;;;;;4969475;28;20041;-57
2022/01/03 10:12:17;;;;;;;10.15;2.10;;;13.50;56.70;;;;;;4976313;28;20046;-56
2022/01/03 10:14:43;;;;;;;13.27;2.60;;;13.50;56.70;;;;;;4980413;28;20019;-57
2022/01/03 10:17:11;;;;;;;13.07;1.90;;;13.50;56.70;;;;;;4969151;28;20038;-56
2022/01/03 10:19:54;;;;;;;11.98;2.15;;;13.50;56.70;;;;;;4964013;28;20038;-57
2022/01/03 10:22:26;;;;;;;13.88;2.50;;;13.60;56.70;;;;;;4976544;28;20049;-56
2022/01/03 10:24:54;;;;;;;11.52;1.83;;;13.60;56.60;;;;;;4977233;28;20485;-55
2022/01/03 10:27:23;;;;;;;7.55;1.90;;;13.60;56.50;;;;;;4966900;28;20050;-56
2022/01/03 10:29:57;;;;;;;8.05;1.58;;;13.70;56.50;;;;;;4978713;28;20026;-56
2022/01/03 10:32:24;;;;;;;;;;;13.70;56.30;;;;;;4977248;28;20467;-55
2022/01/03 10:34:50;;;;;;;9.45;1.60;;;13.80;56.40;;;;;;4979816;28;19905;-57
2022/01/03 10:37:17;;;;;;;12.13;1.95;;;13.80;56.10;;;;;;4981209;28;20589;-57
2022/01/03 10:39:44;;;;;;;13.88;2.30;;;13.80;56.10;;;;;;4979483;28;20049;-55
2022/01/03 10:42:18;;;;;;;15.07;2.05;;;13.80;56.00;;;;;;4979147;28;20038;-57
2022/01/03 10:44:45;;;;;;;13.35;2.22;;;13.80;55.80;;;;;;4981052;28;20025;-57
2022/01/03 10:47:28;;;;;;;8.63;2.03;;;13.80;55.60;;;;;;4977204;28;20069;-57
2022/01/03 10:49:55;;;;;;;20.27;6.80;;;13.80;55.50;;;;;;4979504;28;20045;-56
2022/01/03 10:52:24;;;;;;;13.27;4.00;;;13.80;55.60;;;;;;4980338;28;20023;-57
2022/01/03 10:55:09;;;;;;;10.13;2.03;;;13.80;55.80;;;;;;4981261;28;20035;-54
2022/01/03 10:57:59;;;;;;;15.90;2.75;;;13.80;56.00;;;;;;4975574;28;20069;-56
2022/01/03 11:00:32;;;;;;;14.52;2.15;;;13.80;55.90;;;;;;4978800;28;20021;-56
2022/01/03 11:03:33;;;;;;;13.10;2.20;;;13.80;55.90;;;;;;4977690;28;20023;-56
2022/01/03 11:06:12;;;;;;;15.65;2.10;;;13.80;56.10;;;;;;4979187;28;20034;-58
2022/01/03 11:11:48;;;;;;;9.20;1.92;;;13.80;56.30;;;;;;4995423;28;20045;-57
2022/01/03 11:14:38;;;;;;;8.75;1.50;;;13.80;56.30;;;;;;4984662;28;20026;-57
2022/01/03 11:17:25;;;;;;;11.43;1.52;;;13.80;56.20;;;;;;4986035;28;20037;-58
2022/01/03 11:19:52;;;;;;;8.65;1.55;;;13.80;56.30;;;;;;4993827;28;20474;-56
2022/01/03 11:22:51;;;;;;;11.00;1.77;;;13.80;56.30;;;;;;4974911;28;20584;-55
2022/01/03 11:25:32;;;;;;;11.57;1.55;;;13.80;56.30;;;;;;4946030;28;20043;-56
2022/01/03 11:28:00;;;;;;;7.72;1.77;;;13.80;56.40;;;;;;4992661;28;20486;-57
2022/01/03 11:30:27;;;;;;;8.32;1.23;;;13.80;56.50;;;;;;4989533;28;20410;-56
2022/01/03 11:32:55;;;;;;;8.90;1.83;;;13.70;56.40;;;;;;4988773;28;20034;-57
2022/01/03 11:35:22;;;;;;;14.73;4.28;;;13.70;56.30;;;;;;4986867;28;21009;-57
2022/01/03 11:37:50;;;;;;;6.03;1.10;;;13.70;56.40;;;;;;4989896;28;20026;-56
2022/01/03 11:40:17;;;;;;;6.68;1.50;;;13.70;56.60;;;;;;4994394;28;20034;-53
2022/01/03 11:42:44;;;;;;;6.15;1.27;;;13.60;56.60;;;;;;4986100;28;20466;-59
2022/01/03 11:45:11;;;;;;;7.57;1.27;;;13.60;56.70;;;;;;4986575;28;20042;-56
2022/01/03 11:47:38;;;;;;;6.72;1.25;;;13.60;56.80;;;;;;4978061;28;20057;-58
2022/01/03 11:50:06;;;;;;;8.65;1.05;;;13.60;56.90;;;;;;4975683;28;20022;-57
2022/01/03 11:52:40;;;;;;;4.75;1.00;;;13.60;56.90;;;;;;4960367;28;20026;-57
2022/01/03 11:55:07;;;;;;;7.75;1.20;;;13.50;56.90;;;;;;4978416;28;20053;-57
2022/01/03 11:58:10;;;;;;;10.93;1.48;;;13.50;56.90;;;;;;4984274;28;20490;-58
2022/01/03 12:03:50;;;;;;;8.27;1.40;;;13.50;57.00;;;;;;4995368;28;20044;-58
2022/01/03 12:06:33;;;;;;;7.65;1.52;;;13.50;57.10;;;;;;4982799;28;20054;-58
2022/01/03 12:09:01;;;;;;;8.60;1.48;;;13.40;57.20;;;;;;4981934;28;20022;-57
2022/01/03 12:11:29;;;;;;;2.63;0.80;;;13.40;57.30;;;;;;4983201;28;20037;-57
2022/01/03 12:14:04;;;;;;;6.93;1.05;;;13.40;57.40;;;;;;4983230;28;20030;-58
2022/01/03 12:16:45;;;;;;;6.30;1.33;;;13.50;57.40;;;;;;4981390;28;20593;-58
2022/01/03 12:19:27;;;;;;;5.57;1.25;;;13.50;57.30;;;;;;4983656;28;20057;-58
2022/01/03 12:21:56;;;;;;;7.93;1.73;;;13.50;57.20;;;;;;4982701;28;20053;-56
2022/01/03 12:24:29;;;;;;;4.78;1.00;;;13.60;57.10;;;;;;4982739;28;20049;-56
2022/01/03 12:27:16;;;;;;;8.07;1.52;;;13.60;57.00;;;;;;4982321;28;20038;-57
2022/01/03 12:29:57;;;;;;;5.25;1.08;;;13.70;56.90;;;;;;4979956;28;20042;-56
2022/01/03 12:32:30;;;;;;;6.88;1.20;;;13.60;56.80;;;;;;4981383;28;20033;-58
2022/01/03 12:35:12;;;;;;;4.93;1.05;;;13.70;56.80;;;;;;4981769;28;20022;-57
2022/01/03 12:37:42;;;;;;;9.57;1.35;;;13.60;56.70;;;;;;4962230;28;20038;-54
2022/01/03 12:40:18;;;;;;;8.80;1.50;;;13.60;56.70;;;;;;4982154;28;20026;-56
2022/01/03 12:42:52;;;;;;;4.15;0.93;;;13.60;56.60;;;;;;4981467;28;20596;-55
2022/01/03 12:45:34;;;;;;;6.78;1.25;;;13.70;56.60;;;;;;4982481;28;20042;-57
2022/01/03 12:48:09;;;;;;;8.77;1.52;;;13.60;56.70;;;;;;4981505;28;20041;-55
2022/01/03 12:50:45;;;;;;;5.13;1.42;;;13.60;56.70;;;;;;4980903;28;20593;-58
2022/01/03 12:53:31;;;;;;;6.30;1.33;;;13.60;56.80;;;;;;4983113;28;20531;-56
2022/01/03 12:56:01;;;;;;;8.30;1.70;;;13.60;56.90;;;;;;4980025;28;20034;-58
2022/01/03 12:58:27;;;;;;;7.85;1.88;;;13.60;56.80;;;;;;4979393;28;20054;-57
2022/01/03 13:00:57;;;;;;;9.55;2.03;;;13.50;56.80;;;;;;4978447;28;20041;-57
2022/01/03 13:03:37;;;;;;;7.60;1.42;;;13.50;56.80;;;;;;4979476;28;20030;-55
2022/01/03 13:06:13;;;;;;;7.40;1.23;;;13.50;56.90;;;;;;4981705;28;20034;-57
2022/01/03 13:08:48;;;;;;;6.25;1.10;;;13.50;56.90;;;;;;4976775;28;20046;-59
2022/01/03 13:11:34;;;;;;;5.10;1.10;;;13.40;56.70;;;;;;4978596;28;20022;-58
2022/01/03 13:14:20;;;;;;;6.95;1.88;;;13.40;56.50;;;;;;4980489;28;20026;-57
2022/01/03 13:16:55;;;;;;;4.55;0.80;;;13.40;56.40;;;;;;4980841;28;20803;-56
2022/01/03 13:19:33;;;;;;;15.55;5.60;;;13.40;56.20;;;;;;4978707;28;20038;-57
2022/01/03 13:22:05;;;;;;;7.38;1.73;;;13.40;56.30;;;;;;4982593;28;20034;-55
2022/01/03 13:24:36;;;;;;;8.48;1.50;;;13.40;56.20;;;;;;4982497;28;20018;-56
2022/01/03 13:27:04;;;;;;;3.60;0.85;;;13.30;56.30;;;;;;4979172;28;20046;-56
2022/01/03 13:29:39;;;;;;;6.10;1.08;;;13.30;56.50;;;;;;4981032;28;20057;-58
2022/01/03 13:32:07;;;;;;;6.72;1.83;;;13.40;56.60;;;;;;4979960;28;20432;-56
2022/01/03 13:34:34;;;;;;;7.10;1.35;;;13.40;56.60;;;;;;4981476;28;20038;-56
2022/01/03 13:37:03;;;;;;;6.47;1.50;;;13.40;56.70;;;;;;4981861;28;20368;-55
2022/01/03 13:39:31;;;;;;;5.60;1.63;;;13.40;56.70;;;;;;4979987;28;20593;-57
2022/01/03 13:42:09;;;;;;;5.18;1.48;;;13.40;56.90;;;;;;4980879;28;20037;-57
2022/01/03 13:49:59;;;;;;;6.40;1.50;;;13.40;57.10;;;;;;4981076;28;20046;-54
2022/01/03 13:52:27;;;;;;;7.68;1.40;;;13.40;57.20;;;;;;4980823;28;20026;-59
2022/01/03 13:54:55;;;;;;;7.38;1.48;;;13.40;57.30;;;;;;4980372;28;20042;-56
2022/01/03 13:57:22;;;;;;;11.32;2.03;;;13.50;57.80;;;;;;4978541;28;20031;-56
2022/01/03 13:59:48;;;;;;;8.52;2.08;;;13.40;57.40;;;;;;4966876;28;20022;-57
2022/01/03 14:02:14;;;;;;;8.60;1.40;;;13.40;57.40;;;;;;4974947;28;20022;-57
2022/01/03 14:04:41;;;;;;;9.35;1.48;;;13.40;57.40;;;;;;4969823;28;20041;-58
2022/01/03 14:07:12;;;;;;;9.57;1.58;;;13.50;57.50;;;;;;4953196;28;20046;-58
2022/01/03 14:09:46;;;;;;;7.95;2.00;;;13.40;57.50;;;;;;4973700;28;20045;-57
2022/01/03 14:12:15;;;;;;;12.52;1.90;;;13.40;57.50;;;;;;4978483;28;20042;-58
2022/01/03 14:14:48;;;;;;;5.93;1.40;;;13.50;57.40;;;;;;4979530;28;20038;-56
2022/01/03 14:17:14;;;;;;;8.00;1.65;;;13.50;57.40;;;;;;4975023;28;20391;-59
2022/01/03 14:19:41;;;;;;;10.55;1.65;;;13.50;57.40;;;;;;4978428;28;20387;-56
2022/01/03 14:22:08;;;;;;;9.55;2.20;;;13.50;57.40;;;;;;4974060;28;20034;-58
2022/01/03 14:24:35;;;;;;;10.93;1.83;;;13.50;57.40;;;;;;4976958;28;20030;-57
2022/01/03 14:27:01;;;;;;;8.13;1.52;;;13.40;57.40;;;;;;4975779;28;20030;-58
2022/01/03 14:29:38;;;;;;;10.32;1.42;;;13.40;57.40;;;;;;4978272;28;20038;-57
2022/01/03 14:32:13;;;;;;;7.72;1.40;;;13.40;57.50;;;;;;4973380;28;20034;-58
2022/01/03 14:34:52;;;;;;;9.75;1.60;;;13.40;57.50;;;;;;4977726;28;20039;-58
2022/01/03 14:37:27;;;;;;;11.70;1.92;;;13.40;57.40;;;;;;4979443;28;20034;-56
2022/01/03 14:39:57;;;;;;;7.20;1.80;;;13.40;57.40;;;;;;4980951;28;20030;-58
2022/01/03 14:42:34;;;;;;;8.40;1.58;;;13.40;57.50;;;;;;4980273;28;20029;-56
2022/01/03 14:45:19;;;;;;;8.63;1.52;;;13.40;57.60;;;;;;4978766;28;20026;-57
2022/01/03 14:47:46;;;;;;;7.93;1.70;;;13.40;57.70;;;;;;4975866;28;20038;-56
2022/01/03 14:50:14;;;;;;;7.35;1.90;;;13.40;57.60;;;;;;4979626;28;20030;-55
2022/01/03 14:52:45;;;;;;;10.48;2.10;;;13.40;57.60;;;;;;4980925;28;20033;-58
2022/01/03 14:55:14;;;;;;;10.32;1.58;;;13.40;57.60;;;;;;4984173;28;20038;-58
2022/01/03 14:57:45;;;;;;;7.25;1.77;;;13.40;57.60;;;;;;4982398;28;20539;-55
2022/01/03 15:00:13;;;;;;;7.95;1.60;;;13.40;57.70;;;;;;4981536;28;20525;-58
2022/01/03 15:02:39;;;;;;;6.38;1.85;;;13.40;57.80;;;;;;4983090;28;20033;-57
2022/01/03 15:05:07;;;;;;;11.13;2.05;;;13.40;57.80;;;;;;4983682;28;20029;-58
2022/01/03 15:07:34;;;;;;;12.63;1.52;;;13.40;57.70;;;;;;4970862;28;20398;-58
2022/01/03 15:10:02;;;;;;;8.00;2.08;;;13.40;57.80;;;;;;4982447;28;20038;-57
2022/01/03 15:12:29;;;;;;;9.63;2.03;;;13.30;57.70;;;;;;4981897;28;20545;-56
2022/01/03 15:14:55;;;;;;;9.60;1.55;;;13.40;57.80;;;;;;4983460;28;20018;-58
2022/01/03 15:17:21;;;;;;;10.45;1.60;;;13.30;57.90;;;;;;4980153;28;20520;-56
2022/01/03 15:19:47;;;;;;;12.38;1.70;;;13.30;57.90;;;;;;4981950;28;20767;-56
2022/01/03 15:22:13;;;;;;;7.18;1.50;;;13.30;57.90;;;;;;4966915;28;20502;-57
2022/01/03 15:24:40;;;;;;;5.70;1.15;;;13.30;58.00;;;;;;4959741;28;20050;-57
2022/01/03 15:27:06;;;;;;;8.35;1.42;;;13.20;58.00;;;;;;4980626;28;20379;-55
2022/01/03 15:29:34;;;;;;;10.75;1.63;;;13.30;58.10;;;;;;4982110;28;20340;-55
2022/01/03 15:32:00;;;;;;;6.63;1.45;;;13.30;58.20;;;;;;4961684;28;20050;-55
2022/01/03 15:34:26;;;;;;;4.78;1.10;;;13.20;58.20;;;;;;4983761;28;20034;-55
2022/01/03 15:36:53;;;;;;;9.70;1.80;;;13.20;58.30;;;;;;4982008;28;20030;-54
2022/01/03 15:39:19;;;;;;;9.20;1.17;;;13.20;58.50;;;;;;4980459;28;20038;-56
2022/01/03 15:41:45;;;;;;;7.07;1.30;;;13.20;58.60;;;;;;4982583;28;20638;-55
2022/01/03 15:44:12;;;;;;;8.45;1.27;;;13.20;58.80;;;;;;4982845;28;20026;-57
2022/01/03 15:46:40;;;;;;;6.20;1.40;;;13.20;58.70;;;;;;4979330;28;20057;-55
2022/01/03 15:49:07;;;;;;;8.38;1.30;;;13.20;58.70;;;;;;4980869;28;20053;-55
2022/01/03 15:51:33;;;;;;;7.35;1.38;;;13.20;58.70;;;;;;4980907;28;20025;-55
2022/01/03 15:54:03;;;;;;;9.35;1.70;;;13.10;58.70;;;;;;4982802;28;20474;-56
2022/01/03 15:56:29;;;;;;;5.85;1.27;;;13.10;58.60;;;;;;4979865;28;20045;-56
2022/01/03 15:58:56;;;;;;;6.60;1.40;;;13.10;58.70;;;;;;4980369;28;20399;-55
2022/01/03 16:01:22;;;;;;;6.35;1.52;;;13.10;58.70;;;;;;4979084;28;20038;-53
2022/01/03 16:03:48;;;;;;;6.93;1.45;;;13.10;58.70;;;;;;4977801;28;20037;-56
2022/01/03 16:06:14;;;;;;;9.13;1.23;;;13.10;58.80;;;;;;4985734;28;20056;-53
2022/01/03 16:08:40;;;;;;;7.32;1.27;;;13.10;58.70;;;;;;4986134;28;20040;-55
2022/01/03 16:11:08;;;;;;;7.68;1.45;;;13.10;58.80;;;;;;4986192;28;20022;-57
2022/01/03 16:13:34;;;;;;;13.82;1.60;;;13.00;58.80;;;;;;4990025;28;20045;-56
2022/01/03 16:16:02;;;;;;;4.50;1.60;;;13.10;58.90;;;;;;4982490;28;20022;-52
2022/01/03 16:18:29;;;;;;;6.00;1.15;;;13.00;58.80;;;;;;4989015;28;20041;-56
2022/01/03 16:20:55;;;;;;;9.18;1.65;;;13.10;58.90;;;;;;4986177;28;20033;-55
2022/01/03 16:23:22;;;;;;;6.88;1.35;;;13.00;58.90;;;;;;4992315;28;20487;-55
2022/01/03 16:25:48;;;;;;;7.63;1.50;;;13.10;59.00;;;;;;4983321;28;20023;-55
2022/01/03 16:28:14;;;;;;;7.53;1.80;;;13.00;58.90;;;;;;4996858;28;20034;-55
2022/01/03 16:30:41;;;;;;;3.70;0.90;;;13.00;59.00;;;;;;4993712;28;20026;-55
2022/01/03 16:33:08;;;;;;;7.38;1.38;;;13.00;59.00;;;;;;4994572;28;20037;-53
2022/01/03 16:35:34;;;;;;;6.22;1.17;;;13.00;59.00;;;;;;4986178;28;20407;-55
2022/01/03 16:38:00;;;;;;;4.38;0.95;;;13.00;59.10;;;;;;4988498;28;20090;-56
2022/01/03 16:40:27;;;;;;;6.57;1.50;;;13.00;59.10;;;;;;4986739;28;20034;-55
2022/01/03 16:42:53;;;;;;;8.80;1.40;;;13.00;59.20;;;;;;4994557;28;20497;-57
2022/01/03 16:45:19;;;;;;;8.82;1.20;;;13.00;59.30;;;;;;4987777;28;20098;-53
2022/01/03 16:47:46;;;;;;;8.48;1.35;;;13.00;59.40;;;;;;4989296;28;20031;-56
2022/01/03 16:50:12;;;;;;;5.13;1.15;;;13.00;59.40;;;;;;4997639;28;20053;-54
2022/01/03 16:52:38;;;;;;;6.90;1.30;;;13.00;59.40;;;;;;4998639;28;20040;-55